createdAt,value
2022-11-01T00:00:28.693Z,7.93
2022-11-01T00:03:00.379Z,8.53
2022-11-01T00:05:32.169Z,10.27
2022-11-01T00:08:04.510Z,7.70
2022-11-01T00:10:36.393Z,10.47
2022-11-01T00:13:08.026Z,9.93
2022-11-01T00:15:39.865Z,8.60
2022-11-01T00:18:11.545Z,8.90
2022-11-01T00:20:43.185Z,9.00
2022-11-01T00:23:14.857Z,9.27
2022-11-01T00:25:46.578Z,8.83
2022-11-01T00:28:18.338Z,8.13
2022-11-01T00:30:53.295Z,7.30
2022-11-01T00:33:25.769Z,8.03
2022-11-01T00:36:01.249Z,7.90
2022-11-01T00:38:33.133Z,10.17
2022-11-01T00:41:05.064Z,8.33
2022-11-01T00:43:37.197Z,8.70
2022-11-01T00:46:09.061Z,8.93
2022-11-01T00:48:40.861Z,8.43
2022-11-01T00:51:12.553Z,8.87
2022-11-01T00:53:44.235Z,7.80
2022-11-01T00:56:16.051Z,7.40
2022-11-01T00:58:47.799Z,6.63
2022-11-01T01:01:19.643Z,7.80
2022-11-01T01:03:51.499Z,8.80
2022-11-01T01:06:23.306Z,7.97
2022-11-01T01:08:59.484Z,8.70
2022-11-01T01:11:31.236Z,8.17
2022-11-01T01:14:02.978Z,10.30
2022-11-01T01:16:34.717Z,8.67
2022-11-01T01:19:06.590Z,9.37
2022-11-01T01:21:38.240Z,9.30
2022-11-01T01:24:10.291Z,8.93
2022-11-01T01:26:42.548Z,8.73
2022-11-01T01:29:15.705Z,8.73
2022-11-01T01:31:47.356Z,8.53
2022-11-01T01:34:19.485Z,8.50
2022-11-01T01:36:51.125Z,8.47
2022-11-01T01:39:22.949Z,9.00
2022-11-01T01:41:57.893Z,10.30
2022-11-01T01:44:50.769Z,8.00
2022-11-01T01:47:29.661Z,8.70
2022-11-01T01:50:18.199Z,7.70
2022-11-01T01:53:00.049Z,7.60
2022-11-01T01:55:43.386Z,9.30
2022-11-01T01:58:19.501Z,9.37
2022-11-01T02:00:51.893Z,8.53
2022-11-01T02:03:29.412Z,8.80
2022-11-01T02:06:06.516Z,8.17
2022-11-01T02:08:44.509Z,10.17
2022-11-01T02:11:17.425Z,9.20
2022-11-01T02:13:49.169Z,11.20
2022-11-01T02:16:48.370Z,10.23
2022-11-01T02:20:06.040Z,9.90
2022-11-01T02:23:06.813Z,8.50
2022-11-01T02:26:05.108Z,10.40
2022-11-01T02:28:55.409Z,9.47
2022-11-01T02:31:46.065Z,9.80
2022-11-01T02:34:29.397Z,8.60
2022-11-01T02:37:23.954Z,9.50
2022-11-01T02:40:02.116Z,10.40
2022-11-01T02:42:41.029Z,9.83
2022-11-01T02:45:35.260Z,9.27
2022-11-01T02:48:08.229Z,9.93
2022-11-01T02:50:46.243Z,9.73
2022-11-01T02:53:17.911Z,10.70
2022-11-01T02:55:52.972Z,9.70
2022-11-01T02:58:28.545Z,9.60
2022-11-01T03:01:00.252Z,10.50
2022-11-01T03:03:35.761Z,9.60
2022-11-01T03:06:32.057Z,8.67
2022-11-01T03:09:10.788Z,9.50
2022-11-01T03:11:45.544Z,8.90
2022-11-01T03:14:26.442Z,9.53
2022-11-01T03:17:10.019Z,8.23
2022-11-01T03:19:53.768Z,8.50
2022-11-01T03:22:31.029Z,9.83
2022-11-01T03:25:39.686Z,9.77
2022-11-01T03:28:36.714Z,8.03
2022-11-01T03:31:22.048Z,8.73
2022-11-01T03:33:58.741Z,8.37
2022-11-01T03:36:35.820Z,8.93
2022-11-01T03:39:14.397Z,7.33
2022-11-01T03:41:50.194Z,7.87
2022-11-01T03:44:22.418Z,7.17
2022-11-01T03:46:54.118Z,7.07
2022-11-01T03:49:25.788Z,5.70
2022-11-01T03:51:57.556Z,6.30
2022-11-01T03:54:29.345Z,6.20
2022-11-01T03:57:01.117Z,6.20
2022-11-01T03:59:32.920Z,5.97
2022-11-01T04:02:04.779Z,6.50
2022-11-01T04:04:36.556Z,7.40
2022-11-01T04:07:08.208Z,6.00
2022-11-01T04:09:39.977Z,5.87
2022-11-01T04:12:11.750Z,6.43
2022-11-01T04:15:02.176Z,5.63
2022-11-01T04:17:52.661Z,6.77
2022-11-01T04:20:34.168Z,7.63
2022-11-01T04:23:07.048Z,6.10
2022-11-01T04:25:38.730Z,5.77
2022-11-01T04:28:10.386Z,6.17
2022-11-01T04:30:43.784Z,5.40
2022-11-01T04:33:15.748Z,5.93
2022-11-01T04:35:47.554Z,5.03
2022-11-01T04:38:19.293Z,5.70
2022-11-01T04:40:50.968Z,5.77
2022-11-01T04:43:23.340Z,6.03
2022-11-01T04:45:56.199Z,5.00
2022-11-01T04:48:28.139Z,4.60
2022-11-01T04:51:02.388Z,4.87
2022-11-01T04:53:34.436Z,3.77
2022-11-01T04:56:08.980Z,5.30
2022-11-01T04:58:44.969Z,4.30
2022-11-01T05:01:18.030Z,5.23
2022-11-01T05:03:49.803Z,7.20
2022-11-01T05:06:21.598Z,4.80
2022-11-01T05:08:54.845Z,5.00
2022-11-01T05:11:26.584Z,5.60
2022-11-01T05:13:58.313Z,3.80
2022-11-01T05:16:30.134Z,4.20
2022-11-01T05:19:01.918Z,3.97
2022-11-01T05:21:33.658Z,4.03
2022-11-01T05:24:05.635Z,4.00
2022-11-01T05:26:37.325Z,2.60
2022-11-01T05:29:23.891Z,4.83
2022-11-01T05:31:56.373Z,2.67
2022-11-01T05:34:28.090Z,2.20
2022-11-01T05:36:59.740Z,2.60
2022-11-01T05:39:31.414Z,2.90
2022-11-01T05:42:03.242Z,2.70
2022-11-01T05:44:34.956Z,2.93
2022-11-01T05:47:06.645Z,2.30
2022-11-01T05:49:38.301Z,2.20
2022-11-01T05:52:09.948Z,2.17
2022-11-01T05:54:41.737Z,2.17
2022-11-01T05:57:13.705Z,2.27
2022-11-01T05:59:45.404Z,1.93
2022-11-01T06:02:17.098Z,2.30
2022-11-01T06:04:49.161Z,2.20
2022-11-01T06:07:20.824Z,2.10
2022-11-01T06:09:52.636Z,2.43
2022-11-01T06:12:25.517Z,2.77
2022-11-01T06:14:57.202Z,2.67
2022-11-01T06:17:28.925Z,2.27
2022-11-01T06:20:00.719Z,2.10
2022-11-01T06:22:36.075Z,1.90
2022-11-01T06:25:09.227Z,1.93
2022-11-01T06:27:40.925Z,2.60
2022-11-01T06:30:12.935Z,2.87
2022-11-01T06:32:44.587Z,2.43
2022-11-01T06:35:16.427Z,3.27
2022-11-01T06:37:48.150Z,2.80
2022-11-01T06:40:20.239Z,3.13
2022-11-01T06:42:52.034Z,3.03
2022-11-01T06:45:23.745Z,2.07
2022-11-01T06:47:55.472Z,2.23
2022-11-01T06:50:27.220Z,2.47
2022-11-01T06:52:59.974Z,2.53
2022-11-01T06:55:31.931Z,3.00
2022-11-01T06:58:04.026Z,2.03
2022-11-01T07:00:36.049Z,1.90
2022-11-01T07:03:12.164Z,1.60
2022-11-01T07:05:43.950Z,2.97
2022-11-01T07:08:15.862Z,1.40
2022-11-01T07:10:50.592Z,1.90
2022-11-01T07:13:22.414Z,1.47
2022-11-01T07:15:54.361Z,1.43
2022-11-01T07:18:26.049Z,1.50
2022-11-01T07:20:57.892Z,1.13
2022-11-01T07:23:30.061Z,1.40
2022-11-01T07:26:02.311Z,1.70
2022-11-01T07:28:34.068Z,1.90
2022-11-01T07:31:06.310Z,1.83
2022-11-01T07:33:38.313Z,1.40
2022-11-01T07:36:10.144Z,1.30
2022-11-01T07:38:41.864Z,1.60
2022-11-01T07:41:13.606Z,1.13
2022-11-01T07:43:45.247Z,1.43
2022-11-01T07:46:17.030Z,1.40
2022-11-01T07:48:50.932Z,1.73
2022-11-01T07:51:22.671Z,2.10
2022-11-01T07:53:54.818Z,1.60
2022-11-01T07:56:26.513Z,1.43
2022-11-01T07:58:58.317Z,1.50
2022-11-01T08:01:30.024Z,1.87
2022-11-01T08:04:01.865Z,1.43
2022-11-01T08:06:33.617Z,1.50
2022-11-01T08:09:05.432Z,1.90
2022-11-01T08:11:37.105Z,1.30
2022-11-01T08:14:12.134Z,1.50
2022-11-01T08:16:44.166Z,1.10
2022-11-01T08:19:16.080Z,1.27
2022-11-01T08:21:50.656Z,1.10
2022-11-01T08:24:22.325Z,1.43
2022-11-01T08:26:54.338Z,1.20
2022-11-01T08:29:26.069Z,1.20
2022-11-01T08:31:57.773Z,1.90
2022-11-01T08:34:30.774Z,1.30
2022-11-01T08:37:02.423Z,1.30
2022-11-01T08:39:34.122Z,1.10
2022-11-01T08:42:05.927Z,1.03
2022-11-01T08:44:38.089Z,1.10
2022-11-01T08:47:10.025Z,0.93
2022-11-01T08:49:41.709Z,1.07
2022-11-01T08:52:13.418Z,1.10
2022-11-01T08:54:45.106Z,1.07
2022-11-01T08:57:16.834Z,1.10
2022-11-01T08:59:48.496Z,0.90
2022-11-01T09:02:20.512Z,0.90
2022-11-01T09:04:52.640Z,0.80
2022-11-01T09:07:24.461Z,0.80
2022-11-01T09:09:56.161Z,0.83
2022-11-01T09:12:27.988Z,1.00
2022-11-01T09:14:59.667Z,0.83
2022-11-01T09:17:31.601Z,1.40
2022-11-01T09:20:04.578Z,1.00
2022-11-01T09:22:37.506Z,1.00
2022-11-01T09:25:09.813Z,1.00
2022-11-01T09:27:41.550Z,1.40
2022-11-01T09:30:13.593Z,0.80
2022-11-01T09:32:45.366Z,1.10
2022-11-01T09:35:18.140Z,1.10
2022-11-01T09:37:56.648Z,1.10
2022-11-01T09:40:33.144Z,1.07
2022-11-01T09:43:09.706Z,0.80
2022-11-01T09:45:41.460Z,1.07
2022-11-01T09:48:15.281Z,1.27
2022-11-01T09:50:47.408Z,0.90
2022-11-01T09:53:23.617Z,1.27
2022-11-01T09:56:12.373Z,1.13
2022-11-01T09:59:23.703Z,1.03
2022-11-01T10:02:15.409Z,0.87
2022-11-01T10:05:16.020Z,1.10
2022-11-01T10:08:15.373Z,1.20
2022-11-01T10:10:58.941Z,1.20
2022-11-01T10:13:42.660Z,1.37
2022-11-01T10:16:37.017Z,1.13
2022-11-01T10:19:21.835Z,1.00
2022-11-01T10:22:01.141Z,1.07
2022-11-01T10:24:41.831Z,1.20
2022-11-01T10:27:25.536Z,1.40
2022-11-01T10:30:03.674Z,1.20
2022-11-01T10:32:45.589Z,1.47
2022-11-01T10:35:19.963Z,1.20
2022-11-01T10:38:26.603Z,1.30
2022-11-01T10:41:07.064Z,1.40
2022-11-01T10:43:45.314Z,1.60
2022-11-01T10:46:22.891Z,1.50
2022-11-01T10:49:03.357Z,1.40
2022-11-01T10:51:36.251Z,1.90
2022-11-01T10:54:19.376Z,1.50
2022-11-01T10:56:54.176Z,1.77
2022-11-01T10:59:36.143Z,1.50
2022-11-01T11:02:42.971Z,1.70
2022-11-01T11:05:16.025Z,1.57
2022-11-01T11:07:47.978Z,1.20
2022-11-01T11:10:24.913Z,1.40
2022-11-01T11:13:05.214Z,1.23
2022-11-01T11:15:40.067Z,1.70
2022-11-01T11:18:24.738Z,1.60
2022-11-01T11:21:06.175Z,1.23
2022-11-01T11:23:46.392Z,1.33
2022-11-01T11:26:20.373Z,1.40
2022-11-01T11:28:56.242Z,1.50
2022-11-01T11:31:34.948Z,1.30
2022-11-01T11:34:16.416Z,1.60
2022-11-01T11:36:51.854Z,1.60
2022-11-01T11:39:36.558Z,1.57
2022-11-01T11:42:17.211Z,1.90
2022-11-01T11:44:55.694Z,1.43
2022-11-01T11:47:36.204Z,1.50
2022-11-01T11:50:21.193Z,1.90
2022-11-01T11:53:07.698Z,1.70
2022-11-01T11:56:02.489Z,1.40
2022-11-01T11:58:45.097Z,1.77
2022-11-01T12:01:23.562Z,1.70
2022-11-01T12:04:06.061Z,1.70
2022-11-01T12:06:41.217Z,1.70
2022-11-01T12:09:43.049Z,1.60
2022-11-01T12:12:27.941Z,1.63
2022-11-01T12:15:03.065Z,1.50
2022-11-01T12:17:44.519Z,1.93
2022-11-01T12:20:20.078Z,1.60
2022-11-01T12:23:27.454Z,1.90
2022-11-01T12:26:03.267Z,1.63
2022-11-01T12:28:39.451Z,1.90
2022-11-01T12:31:27.571Z,1.80
2022-11-01T12:34:30.982Z,1.60
2022-11-01T12:37:11.414Z,2.47
2022-11-01T12:39:57.064Z,2.70
2022-11-01T12:42:46.327Z,1.40
2022-11-01T12:45:33.420Z,1.50
2022-11-01T12:48:17.577Z,1.90
2022-11-01T12:50:56.582Z,1.50
2022-11-01T12:53:42.001Z,1.87
2022-11-01T12:56:13.781Z,3.37
2022-11-01T12:58:46.626Z,1.80
2022-11-01T13:01:26.388Z,1.60
2022-11-01T13:04:20.733Z,1.40
2022-11-01T13:07:30.249Z,1.70
2022-11-01T13:10:18.593Z,1.50
2022-11-01T13:13:10.625Z,1.80
2022-11-01T13:15:51.229Z,1.80
2022-11-01T13:18:33.427Z,1.50
2022-11-01T13:21:25.961Z,1.90
2022-11-01T13:24:00.860Z,1.80
2022-11-01T13:26:43.286Z,1.50
2022-11-01T13:29:20.300Z,1.90
2022-11-01T13:32:11.281Z,2.10
2022-11-01T13:35:04.717Z,1.67
2022-11-01T13:38:03.633Z,2.50
2022-11-01T13:40:56.950Z,1.70
2022-11-01T13:43:42.312Z,1.63
2022-11-01T13:46:40.390Z,2.07
2022-11-01T13:49:38.240Z,2.20
2022-11-01T13:52:18.066Z,1.80
2022-11-01T13:55:05.191Z,1.93
2022-11-01T13:57:44.856Z,1.27
2022-11-01T14:00:38.281Z,1.60
2022-11-01T14:03:25.813Z,1.63
2022-11-01T14:09:23.863Z,1.80
2022-11-01T14:11:57.241Z,1.83
2022-11-01T14:14:32.196Z,2.03
2022-11-01T14:17:19.137Z,1.50
2022-11-01T14:20:13.577Z,1.70
2022-11-01T14:22:49.181Z,1.40
2022-11-01T14:28:16.095Z,1.77
2022-11-01T14:30:49.529Z,1.60
2022-11-01T14:33:22.601Z,1.60
2022-11-01T14:35:57.050Z,1.63
2022-11-01T14:38:41.076Z,1.60
2022-11-01T14:41:14.333Z,1.60
2022-11-01T14:43:54.815Z,1.73
2022-11-01T14:46:30.622Z,1.90
2022-11-01T14:49:11.673Z,1.90
2022-11-01T14:52:00.619Z,1.70
2022-11-01T14:54:46.569Z,1.80
2022-11-01T14:57:29.041Z,1.63
2022-11-01T15:00:22.892Z,2.00
2022-11-01T15:05:32.236Z,1.80
2022-11-01T15:08:16.659Z,2.13
2022-11-01T15:10:49.608Z,2.03
2022-11-01T15:13:23.914Z,1.97
2022-11-01T15:16:07.392Z,2.20
2022-11-01T15:18:51.713Z,3.00
2022-11-01T15:21:29.038Z,2.63
2022-11-01T15:24:03.584Z,2.23
2022-11-01T15:26:37.876Z,8.50
2022-11-01T15:29:18.425Z,3.50
2022-11-01T15:31:57.463Z,1.67
2022-11-01T15:34:31.345Z,2.20
2022-11-01T15:37:22.769Z,2.33
2022-11-01T15:39:54.863Z,2.20
2022-11-01T15:42:33.855Z,2.27
2022-11-01T15:45:20.224Z,2.43
2022-11-01T15:47:52.701Z,2.13
2022-11-01T15:50:28.196Z,2.50
2022-11-01T15:53:03.983Z,3.03
2022-11-01T15:55:43.228Z,2.20
2022-11-01T15:58:23.467Z,2.57
2022-11-01T16:01:01.576Z,3.30
2022-11-01T16:03:43.696Z,2.60
2022-11-01T16:06:29.297Z,2.63
2022-11-01T16:09:05.336Z,2.93
2022-11-01T16:11:37.073Z,2.47
2022-11-01T16:14:28.468Z,3.13
2022-11-01T16:17:02.549Z,2.53
2022-11-01T16:19:44.980Z,3.00
2022-11-01T16:22:34.999Z,2.80
2022-11-01T16:25:06.724Z,3.00
2022-11-01T16:28:05.513Z,2.90
2022-11-01T16:30:53.334Z,2.30
2022-11-01T16:33:35.430Z,2.50
2022-11-01T16:36:19.442Z,2.53
2022-11-01T16:38:53.388Z,4.53
2022-11-01T16:41:30.996Z,2.40
2022-11-01T16:44:15.124Z,2.27
2022-11-01T16:46:47.004Z,2.13
2022-11-01T16:49:22.834Z,2.80
2022-11-01T16:51:56.503Z,2.20
2022-11-01T16:54:28.637Z,1.90
2022-11-01T16:57:00.361Z,1.93
2022-11-01T16:59:40.869Z,2.30
2022-11-01T17:02:28.055Z,3.77
2022-11-01T17:05:18.759Z,2.90
2022-11-01T17:07:50.476Z,3.10
2022-11-01T17:10:30.881Z,3.00
2022-11-01T17:13:04.179Z,4.17
2022-11-01T17:15:42.382Z,2.70
2022-11-01T17:18:29.685Z,3.37
2022-11-01T17:21:07.229Z,2.57
2022-11-01T17:23:39.077Z,2.77
2022-11-01T17:26:11.748Z,2.57
2022-11-01T17:28:52.145Z,2.90
2022-11-01T17:31:25.944Z,2.40
2022-11-01T17:33:57.596Z,2.50
2022-11-01T17:36:29.396Z,2.13
2022-11-01T17:39:01.228Z,1.83
2022-11-01T17:41:33.084Z,2.57
2022-11-01T17:44:05.274Z,2.60
2022-11-01T17:46:39.701Z,3.10
2022-11-01T17:49:15.580Z,2.30
2022-11-01T17:51:53.359Z,2.77
2022-11-01T17:56:58.081Z,2.30
2022-11-01T17:59:31.531Z,2.30
2022-11-01T18:02:03.438Z,2.20
2022-11-01T18:04:36.782Z,3.00
2022-11-01T18:07:10.721Z,2.70
2022-11-01T18:09:42.515Z,3.30
2022-11-01T18:12:26.691Z,2.97
2022-11-01T18:15:19.528Z,2.33
2022-11-01T18:18:39.852Z,2.20
2022-11-01T18:21:30.728Z,3.07
2022-11-01T18:24:13.012Z,2.50
2022-11-01T18:26:47.203Z,2.37
2022-11-01T18:29:23.507Z,2.65
2022-11-01T18:32:09.807Z,2.80
2022-11-01T18:34:51.956Z,2.60
2022-11-01T18:37:30.840Z,2.77
2022-11-01T18:40:27.483Z,3.17
2022-11-01T18:42:59.482Z,2.50
2022-11-01T18:45:45.514Z,2.90
2022-11-01T18:48:27.544Z,2.70
2022-11-01T18:51:05.901Z,2.60
2022-11-01T18:53:39.128Z,2.63
2022-11-01T18:56:25.733Z,2.67
2022-11-01T18:59:00.284Z,2.60
2022-11-01T19:01:32.579Z,2.30
2022-11-01T19:04:25.412Z,2.47
2022-11-01T19:07:11.334Z,2.67
2022-11-01T19:09:51.690Z,2.67
2022-11-01T19:12:31.027Z,2.60
2022-11-01T19:15:15.628Z,2.30
2022-11-01T19:18:05.552Z,2.80
2022-11-01T19:20:52.828Z,2.13
2022-11-01T19:23:38.422Z,1.90
2022-11-01T19:26:33.826Z,2.40
2022-11-01T19:29:29.494Z,2.20
2022-11-01T19:32:03.840Z,1.70
2022-11-01T19:34:39.650Z,2.20
2022-11-01T19:37:42.065Z,2.17
2022-11-01T19:40:30.817Z,2.67
2022-11-01T19:43:24.700Z,2.13
2022-11-01T19:45:59.287Z,1.87
2022-11-01T19:48:32.663Z,2.30
2022-11-01T19:51:14.097Z,1.90
2022-11-01T19:53:46.569Z,2.10
2022-11-01T19:56:29.184Z,2.00
2022-11-01T19:59:03.687Z,2.23
2022-11-01T20:01:44.079Z,2.30
2022-11-01T20:04:27.439Z,2.57
2022-11-01T20:07:28.084Z,2.20
2022-11-01T20:10:01.978Z,2.43
2022-11-01T20:12:34.747Z,2.20
2022-11-01T20:15:07.469Z,2.10
2022-11-01T20:17:39.234Z,2.00
2022-11-01T20:20:11.328Z,3.23
2022-11-01T20:22:54.570Z,2.97
2022-11-01T20:25:32.548Z,3.03
2022-11-01T20:28:06.130Z,3.20
2022-11-01T20:30:38.047Z,3.30
2022-11-01T20:33:09.868Z,3.40
2022-11-01T20:35:41.655Z,3.13
2022-11-01T20:38:14.136Z,2.77
2022-11-01T20:40:46.064Z,2.83
2022-11-01T20:43:17.888Z,2.60
2022-11-01T20:45:49.754Z,2.40
2022-11-01T20:48:21.505Z,2.10
2022-11-01T20:50:53.669Z,2.77
2022-11-01T20:53:29.723Z,3.53
2022-11-01T20:56:02.207Z,2.70
2022-11-01T20:58:40.560Z,3.00
2022-11-01T21:01:17.579Z,2.93
2022-11-01T21:03:52.072Z,3.80
2022-11-01T21:06:28.394Z,4.00
2022-11-01T21:09:01.516Z,3.60
2022-11-01T21:11:46.145Z,3.23
2022-11-01T21:14:21.035Z,3.53
2022-11-01T21:16:58.920Z,3.27
2022-11-01T21:19:33.136Z,3.70
2022-11-01T21:22:10.952Z,3.03
2022-11-01T21:24:46.225Z,3.20
2022-11-01T21:30:20.462Z,3.33
2022-11-01T21:32:52.361Z,3.63
2022-11-01T21:35:35.134Z,3.20
2022-11-01T21:38:33.985Z,2.60
2022-11-01T21:41:28.648Z,2.90
2022-11-01T21:44:18.927Z,2.70
2022-11-01T21:47:11.934Z,3.20
2022-11-01T21:49:43.677Z,2.90
2022-11-01T21:52:16.537Z,3.50
2022-11-01T21:54:49.062Z,3.40
2022-11-01T21:57:21.147Z,3.30
2022-11-01T21:59:53.106Z,4.20
2022-11-01T22:02:24.951Z,2.80
2022-11-01T22:05:00.329Z,3.23
2022-11-01T22:07:32.014Z,3.30
2022-11-01T22:10:04.197Z,3.10
2022-11-01T22:12:35.978Z,3.53
2022-11-01T22:15:08.457Z,3.20
2022-11-01T22:17:40.135Z,3.00
2022-11-01T22:20:11.985Z,4.40
2022-11-01T22:22:44.725Z,3.40
2022-11-01T22:25:16.550Z,3.00
2022-11-01T22:27:48.701Z,3.77
2022-11-01T22:30:20.505Z,4.23
2022-11-01T22:32:52.341Z,3.17
2022-11-01T22:35:24.328Z,3.37
2022-11-01T22:37:57.007Z,3.20
2022-11-01T22:40:28.668Z,2.83
2022-11-01T22:43:16.101Z,2.43
2022-11-01T22:45:48.844Z,3.60
2022-11-01T22:48:24.267Z,2.83
2022-11-01T22:50:56.256Z,3.60
2022-11-01T22:53:28.005Z,2.80
2022-11-01T22:55:59.701Z,3.60
2022-11-01T22:58:37.605Z,3.30
2022-11-01T23:01:35.989Z,3.10
2022-11-01T23:04:20.809Z,2.77
2022-11-01T23:06:52.730Z,3.30
2022-11-01T23:09:25.278Z,3.50
2022-11-01T23:12:36.180Z,2.90
2022-11-01T23:15:28.072Z,3.30
2022-11-01T23:18:22.388Z,3.20
2022-11-01T23:20:59.103Z,2.50
2022-11-01T23:23:31.204Z,5.20
2022-11-01T23:26:05.279Z,3.50
2022-11-01T23:28:42.608Z,3.27
2022-11-01T23:31:15.008Z,3.43
2022-11-01T23:33:48.804Z,3.60
2022-11-01T23:36:33.389Z,2.87
2022-11-01T23:39:09.518Z,3.30
2022-11-01T23:41:49.397Z,3.10
2022-11-01T23:44:33.913Z,2.90
2022-11-01T23:47:32.317Z,4.00
2022-11-01T23:50:07.293Z,3.20
2022-11-01T23:52:46.339Z,2.93
2022-11-01T23:55:29.323Z,3.07
2022-11-01T23:58:06.895Z,4.87
